createdAt,value
2023-02-15T00:09:16.915Z,1.05
2023-02-15T00:19:19.876Z,1.38
2023-02-15T00:29:21.866Z,1.10
2023-02-15T00:39:24.711Z,1.20
2023-02-15T00:49:26.284Z,1.17
2023-02-15T00:59:28.983Z,1.20
2023-02-15T01:09:30.614Z,1.40
2023-02-15T01:19:32.133Z,1.42
2023-02-15T01:29:34.800Z,1.20
2023-02-15T01:39:36.369Z,1.50
2023-02-15T01:49:41.963Z,1.48
2023-02-15T01:59:47.328Z,1.00
2023-02-15T02:09:49.253Z,1.10
2023-02-15T02:20:21.843Z,1.10
2023-02-15T02:30:47.011Z,1.10
2023-02-15T02:41:23.826Z,1.10
2023-02-15T02:51:25.427Z,1.15
2023-02-15T03:01:38.483Z,1.10
2023-02-15T03:11:40.173Z,1.05
2023-02-15T03:21:58.655Z,1.30
2023-02-15T03:32:02.612Z,1.13
2023-02-15T03:42:11.169Z,1.40
2023-02-15T03:52:14.101Z,1.27
2023-02-15T04:02:23.147Z,1.20
2023-02-15T04:12:24.919Z,1.35
2023-02-15T04:22:45.068Z,1.13
2023-02-15T04:32:46.906Z,1.20
2023-02-15T04:42:50.008Z,1.00
2023-02-15T04:52:51.575Z,1.20
2023-02-15T05:02:53.028Z,1.50
2023-02-15T05:12:54.596Z,1.75
2023-02-15T07:30:17.823Z,1.52
2023-02-15T07:40:19.965Z,1.30
2023-02-15T07:50:21.690Z,1.33
2023-02-15T08:00:25.767Z,1.60
2023-02-15T08:10:47.384Z,1.23
2023-02-15T08:20:52.199Z,1.40
2023-02-15T08:30:53.704Z,1.33
2023-02-15T08:40:55.217Z,1.45
2023-02-15T08:50:56.719Z,1.50
2023-02-15T09:00:59.066Z,1.52
2023-02-15T09:11:23.187Z,1.23
2023-02-15T09:21:26.533Z,1.40
2023-02-15T09:31:30.382Z,1.60
2023-02-15T09:41:54.554Z,1.55
2023-02-15T09:52:14.763Z,2.10
2023-02-15T10:02:36.931Z,1.73
2023-02-15T10:13:08.688Z,1.63
2023-02-15T10:23:47.490Z,1.67
2023-02-15T10:33:55.624Z,1.60
2023-02-15T10:44:11.688Z,1.67
2023-02-15T10:54:16.576Z,1.60
2023-02-15T11:04:37.275Z,1.60
2023-02-15T11:14:46.475Z,1.60
2023-02-15T11:24:48.168Z,1.65
2023-02-15T11:34:54.659Z,1.40
2023-02-15T11:45:15.648Z,1.73
2023-02-15T11:55:23.162Z,1.42
2023-02-15T12:05:26.325Z,1.55
2023-02-15T12:15:32.471Z,1.90
2023-02-15T12:25:38.750Z,1.45
2023-02-15T12:35:40.268Z,1.30
2023-02-15T12:45:42.027Z,1.33
2023-02-15T12:55:58.304Z,1.50
2023-02-15T13:05:59.957Z,1.40
2023-02-15T13:16:13.250Z,1.50
2023-02-15T13:26:21.923Z,1.90
2023-02-15T13:36:32.388Z,1.60
2023-02-15T13:47:01.834Z,1.42
2023-02-15T13:57:12.640Z,1.50
2023-02-15T14:07:23.201Z,1.73
2023-02-15T14:17:52.114Z,1.25
2023-02-15T14:28:08.947Z,1.60
2023-02-15T14:38:10.412Z,1.70
2023-02-15T14:48:21.320Z,2.00
2023-02-15T14:58:23.154Z,2.03
2023-02-15T15:08:35.937Z,1.80
2023-02-15T15:18:46.393Z,2.00
2023-02-15T15:28:47.917Z,1.80
2023-02-15T15:39:33.727Z,1.70
2023-02-15T15:49:36.668Z,1.67
2023-02-15T15:59:45.236Z,1.98
2023-02-15T16:10:00.143Z,1.88
2023-02-15T16:20:12.301Z,1.60
2023-02-15T16:30:43.783Z,1.65
2023-02-15T16:40:58.212Z,2.10
2023-02-15T16:51:00.254Z,2.22
2023-02-15T17:01:03.921Z,2.30
2023-02-15T17:11:17.966Z,2.65
2023-02-15T17:21:21.446Z,2.65
2023-02-15T17:31:30.435Z,2.40
2023-02-15T17:41:35.086Z,2.42
2023-02-15T17:51:36.747Z,2.40
2023-02-15T18:02:02.969Z,4.90
2023-02-15T18:12:23.102Z,4.90
2023-02-15T18:22:24.666Z,4.90
2023-02-15T18:32:33.668Z,5.40
2023-02-15T18:42:36.049Z,5.32
2023-02-15T18:52:38.333Z,4.63
2023-02-15T19:02:39.864Z,5.13
2023-02-15T19:12:41.497Z,4.40
2023-02-15T19:22:43.184Z,4.38
2023-02-15T19:32:45.460Z,3.83
2023-02-15T19:42:47.139Z,3.88
2023-02-15T19:52:48.973Z,4.13
2023-02-15T20:02:50.519Z,3.90
2023-02-15T20:12:52.109Z,3.60
2023-02-15T20:22:53.587Z,3.60
2023-02-15T20:32:55.259Z,3.40
2023-02-15T20:42:56.961Z,3.10
2023-02-15T20:53:00.198Z,3.15
2023-02-15T21:03:01.862Z,3.60
2023-02-15T21:13:04.468Z,3.22
2023-02-15T21:23:06.597Z,3.50
2023-02-15T21:33:08.093Z,3.05
2023-02-15T21:43:48.311Z,3.10
2023-02-15T21:53:49.966Z,3.35
2023-02-15T22:03:53.485Z,2.97
2023-02-15T22:13:55.113Z,2.85
2023-02-15T22:23:56.612Z,2.97
2023-02-15T22:33:58.133Z,2.70
2023-02-15T22:44:00.324Z,2.67
2023-02-15T22:54:01.905Z,2.67
2023-02-15T23:04:04.331Z,2.80
2023-02-15T23:14:06.021Z,3.00
2023-02-15T23:24:22.531Z,2.78
2023-02-15T23:34:31.320Z,3.00
2023-02-15T23:44:32.932Z,2.72
2023-02-15T23:54:34.517Z,2.63
